createdAt,value
2022-09-05T00:00:19.434Z,15.10
2022-09-05T00:06:07.506Z,15.10
2022-09-05T00:11:50.161Z,15.10
2022-09-05T00:19:50.328Z,15.00
2022-09-05T00:24:33.930Z,14.90
2022-09-05T00:31:05.854Z,14.90
2022-09-05T00:36:05.454Z,14.80
2022-09-05T00:41:34.333Z,14.80
2022-09-05T00:47:47.978Z,14.70
2022-09-05T00:53:41.930Z,14.70
2022-09-05T00:59:43.989Z,14.70
2022-09-05T01:06:06.647Z,14.60
2022-09-05T01:11:53.914Z,14.60
2022-09-05T01:17:51.617Z,14.50
2022-09-05T01:24:03.113Z,14.50
2022-09-05T01:29:50.683Z,14.50
2022-09-05T01:36:10.529Z,14.40
2022-09-05T01:42:15.324Z,14.40
2022-09-05T01:48:24.280Z,14.30
2022-09-05T01:54:27.011Z,14.20
2022-09-05T02:00:17.686Z,14.20
2022-09-05T02:06:02.814Z,14.20
2022-09-05T02:12:27.522Z,14.10
2022-09-05T02:17:58.664Z,14.00
2022-09-05T02:24:04.998Z,14.00
2022-09-05T02:29:55.844Z,13.90
2022-09-05T02:35:44.029Z,13.90
2022-09-05T02:45:06.536Z,13.80
2022-09-05T02:47:56.175Z,13.70
2022-09-05T02:57:33.653Z,13.70
2022-09-05T03:00:13.655Z,13.70
2022-09-05T03:06:13.312Z,13.60
2022-09-05T03:12:43.336Z,13.60
2022-09-05T03:18:52.290Z,13.50
2022-09-05T03:24:55.585Z,13.40
2022-09-05T03:31:06.450Z,13.40
2022-09-05T03:37:09.131Z,13.30
2022-09-05T03:43:18.136Z,13.30
2022-09-05T03:50:15.327Z,13.20
2022-09-05T03:57:23.217Z,13.20
2022-09-05T04:03:26.972Z,13.20
2022-09-05T04:08:34.309Z,13.10
2022-09-05T04:14:19.421Z,13.00
2022-09-05T04:20:11.852Z,13.00
2022-09-05T04:26:11.019Z,13.00
2022-09-05T04:32:17.690Z,12.90
2022-09-05T04:37:48.108Z,12.90
2022-09-05T04:43:43.290Z,12.90
2022-09-05T04:49:24.474Z,12.90
2022-09-05T04:55:11.194Z,12.90
2022-09-05T05:05:58.549Z,12.90
2022-09-05T05:07:22.781Z,12.90
2022-09-05T05:18:00.667Z,13.10
2022-09-05T05:19:57.851Z,13.20
2022-09-05T05:25:51.449Z,13.40
2022-09-05T05:31:33.154Z,13.60
2022-09-05T05:37:11.572Z,13.80
2022-09-05T05:42:40.938Z,14.00
2022-09-05T05:48:30.605Z,14.20
2022-09-05T05:54:24.280Z,14.50
2022-09-05T06:00:27.317Z,14.80
2022-09-05T06:05:59.810Z,15.00
2022-09-05T06:14:55.646Z,15.30
2022-09-05T06:18:28.220Z,15.50
2022-09-05T06:24:46.866Z,15.70
2022-09-05T06:30:22.243Z,16.00
2022-09-05T06:36:24.452Z,16.20
2022-09-05T06:42:43.647Z,16.50
2022-09-05T06:48:36.598Z,16.60
2022-09-05T06:54:59.507Z,16.80
2022-09-05T07:00:52.433Z,17.00
2022-09-05T07:07:01.443Z,17.10
2022-09-05T07:12:39.351Z,17.30
2022-09-05T07:18:47.575Z,17.50
2022-09-05T07:24:51.866Z,17.80
2022-09-05T07:30:14.191Z,17.90
2022-09-05T07:35:44.295Z,18.00
2022-09-05T07:41:27.293Z,18.20
2022-09-05T07:47:08.251Z,18.40
2022-09-05T07:56:50.858Z,18.70
2022-09-05T07:58:45.315Z,18.90
2022-09-05T08:04:32.543Z,19.30
2022-09-05T08:10:15.563Z,19.50
2022-09-05T08:16:09.879Z,19.70
2022-09-05T08:21:49.771Z,20.00
2022-09-05T08:27:33.376Z,20.10
2022-09-05T08:33:11.387Z,20.30
2022-09-05T08:38:43.349Z,20.70
2022-09-05T08:46:36.845Z,21.10
2022-09-05T08:50:29.526Z,21.40
2022-09-05T08:56:21.102Z,21.80
2022-09-05T09:02:46.554Z,22.00
2022-09-05T09:09:05.968Z,22.40
2022-09-05T09:14:48.524Z,22.70
2022-09-05T09:20:47.159Z,23.00
2022-09-05T09:26:24.541Z,23.20
2022-09-05T09:32:01.198Z,23.40
2022-09-05T09:38:08.093Z,23.60
2022-09-05T09:44:06.707Z,23.70
2022-09-05T09:50:03.529Z,24.00
2022-09-05T09:55:41.193Z,24.30
2022-09-05T10:01:35.163Z,24.30
2022-09-05T10:11:00.719Z,24.50
2022-09-05T10:13:27.332Z,24.70
2022-09-05T10:25:52.071Z,25.20
2022-09-05T10:32:27.538Z,25.50
2022-09-05T10:37:14.141Z,25.70
2022-09-05T10:42:59.900Z,25.70
2022-09-05T10:48:53.280Z,25.70
2022-09-05T10:54:30.010Z,25.80
2022-09-05T11:02:22.801Z,26.00
2022-09-05T11:06:24.880Z,26.30
2022-09-05T11:12:20.857Z,26.40
2022-09-05T11:18:04.763Z,26.60
2022-09-05T11:23:57.131Z,26.70
2022-09-05T11:29:35.683Z,26.60
2022-09-05T11:39:48.847Z,26.60
2022-09-05T11:41:43.489Z,26.70
2022-09-05T11:48:09.152Z,26.70
2022-09-05T11:54:41.438Z,26.80
2022-09-05T12:00:41.167Z,26.90
2022-09-05T12:06:48.193Z,27.10
2022-09-05T12:12:41.904Z,27.10
2022-09-05T12:18:46.943Z,27.30
2022-09-05T12:25:24.715Z,27.40
2022-09-05T12:30:53.176Z,27.50
2022-09-05T12:39:52.163Z,27.70
2022-09-05T12:44:38.664Z,27.90
2022-09-05T12:49:07.979Z,28.10
2022-09-05T12:54:57.096Z,28.40
2022-09-05T13:03:03.139Z,28.60
2022-09-05T13:06:47.000Z,28.70
2022-09-05T13:13:49.881Z,29.00
2022-09-05T13:18:37.471Z,29.10
2022-09-05T13:24:22.197Z,29.30
2022-09-05T13:30:23.824Z,29.40
2022-09-05T13:38:04.622Z,30.20
2022-09-05T13:41:59.598Z,30.80
2022-09-05T13:47:54.520Z,31.50
2022-09-05T13:53:52.094Z,32.60
2022-09-05T13:59:24.968Z,32.40
2022-09-05T14:05:19.478Z,32.60
2022-09-05T14:11:07.688Z,32.60
2022-09-05T14:16:53.505Z,33.50
2022-09-05T14:23:07.929Z,34.90
2022-09-05T14:28:56.453Z,36.20
2022-09-05T14:37:40.802Z,37.10
2022-09-05T14:41:34.673Z,37.80
2022-09-05T14:47:35.005Z,36.90
2022-09-05T15:02:55.257Z,33.50
2022-09-05T15:05:29.637Z,32.30
2022-09-05T15:12:19.699Z,31.30
2022-09-05T15:17:05.151Z,30.30
2022-09-05T15:22:48.024Z,29.30
2022-09-05T15:28:41.444Z,28.60
2022-09-05T15:34:31.690Z,28.10
2022-09-05T15:40:07.653Z,27.90
2022-09-05T15:46:03.617Z,27.40
2022-09-05T15:51:51.565Z,27.00
2022-09-05T15:57:39.725Z,26.70
2022-09-05T16:04:49.828Z,26.60
2022-09-05T16:10:45.069Z,26.40
2022-09-05T16:21:23.360Z,26.20
2022-09-05T16:23:35.083Z,26.30
2022-09-05T16:27:59.914Z,26.00
2022-09-05T16:33:32.288Z,25.80
2022-09-05T16:39:16.848Z,25.60
2022-09-05T16:45:33.497Z,25.40
2022-09-05T16:51:34.829Z,25.30
2022-09-05T16:57:10.510Z,25.10
2022-09-05T17:03:12.392Z,25.00
2022-09-05T17:08:40.376Z,24.90
2022-09-05T17:14:17.577Z,24.70
2022-09-05T17:20:06.171Z,24.60
2022-09-05T17:29:31.435Z,24.40
2022-09-05T17:32:02.174Z,24.30
2022-09-05T17:37:36.549Z,24.10
2022-09-05T17:43:13.316Z,24.00
2022-09-05T17:49:18.290Z,23.80
2022-09-05T17:54:52.586Z,23.70
2022-09-05T18:00:44.919Z,23.50
2022-09-05T18:06:17.714Z,23.40
2022-09-05T18:12:18.780Z,23.30
2022-09-05T18:18:29.934Z,23.10
2022-09-05T18:24:07.992Z,23.00
2022-09-05T18:29:58.050Z,22.80
2022-09-05T18:35:38.336Z,22.60
2022-09-05T18:41:15.875Z,22.40
2022-09-05T18:46:51.793Z,22.30
2022-09-05T18:52:26.339Z,22.10
2022-09-05T18:58:05.580Z,22.00
2022-09-05T19:03:36.123Z,21.90
2022-09-05T19:09:09.874Z,21.70
2022-09-05T19:14:54.927Z,21.60
2022-09-05T19:20:33.817Z,21.40
2022-09-05T19:26:10.045Z,21.30
2022-09-05T19:36:50.138Z,21.10
2022-09-05T19:37:47.319Z,20.90
2022-09-05T19:47:43.030Z,20.70
2022-09-05T19:49:12.098Z,20.50
2022-09-05T19:54:43.611Z,20.40
2022-09-05T20:00:21.633Z,20.30
2022-09-05T20:05:50.839Z,20.10
2022-09-05T20:11:45.198Z,20.00
2022-09-05T20:17:29.845Z,19.80
2022-09-05T20:23:09.687Z,19.70
2022-09-05T20:28:40.221Z,19.50
2022-09-05T20:36:06.889Z,19.40
2022-09-05T20:43:35.069Z,19.30
2022-09-05T20:48:18.042Z,19.10
2022-09-05T20:54:26.493Z,19.00
2022-09-05T20:58:14.769Z,18.90
2022-09-05T21:04:04.194Z,18.80
2022-09-05T21:09:32.618Z,18.70
2022-09-05T21:15:24.275Z,18.60
2022-09-05T21:21:28.077Z,18.50
2022-09-05T21:26:53.701Z,18.40
2022-09-05T21:32:24.184Z,18.30
2022-09-05T21:38:01.716Z,18.20
2022-09-05T21:47:34.638Z,18.20
2022-09-05T21:49:23.290Z,18.10
2022-09-05T21:59:16.463Z,18.00
2022-09-05T22:00:42.619Z,17.90
2022-09-05T22:06:14.594Z,17.90
2022-09-05T22:11:50.465Z,17.70
2022-09-05T22:17:22.356Z,17.60
2022-09-05T22:22:56.752Z,17.50
2022-09-05T22:28:27.367Z,17.50
2022-09-05T22:34:01.982Z,17.40
2022-09-05T22:39:36.597Z,17.30
2022-09-05T22:45:08.579Z,17.30
2022-09-05T22:50:37.681Z,17.20
2022-09-05T22:56:08.400Z,17.10
2022-09-05T23:01:36.459Z,17.00
2022-09-05T23:07:04.965Z,17.00
2022-09-05T23:12:36.904Z,16.90
2022-09-05T23:18:08.663Z,16.90
2022-09-05T23:23:38.073Z,16.90
2022-09-05T23:29:06.146Z,16.90
2022-09-05T23:34:34.021Z,16.90
2022-09-05T23:40:02.282Z,16.90
2022-09-05T23:45:31.111Z,16.90
2022-09-05T23:51:09.869Z,16.90
2022-09-05T23:56:38.044Z,16.90
